RYR86DZ EBCI-LFMU
Flight info
| Callsign | RYR86DZ |
|---|---|
| Flight time | 1h 31m |
| Altitude | 31000 |
| Route | CIV N872 LESDO DCT KOVIN DCT DUCRA UM728 RESMI UN857 DISAK DCT DIRMO DCT ETAMO DCT ADEKA DCT MOKDI DCT MEN J27 AFRIC |
| Aircraft | B738/M-SDE2E3FGHIRWXY/LB1 |
Departure
| Time | 2026-04-27 19:42 |
|---|---|
| Airport | Brussels South Charleroi Airport (EBCI) |
Arrival
| Time | 2026-04-27 21:14 |
|---|---|
| Airport | Béziers Vias airport (LFMU) |
| Time | Latitude | Longitude | Altitude | Speed | Heading |
|---|---|---|---|---|---|
| 2026-04-27 19:15 | 50.46891 | 4.47166 | 620 ft | 0 kts | 335° |
| 2026-04-27 19:30 | 50.46873 | 4.47179 | 627 ft | 4 kts | 335° |
| 2026-04-27 19:30 | 50.46854 | 4.47192 | 625 ft | 4 kts | 320° |
| 2026-04-27 19:30 | 50.46846 | 4.47220 | 625 ft | 4 kts | 248° |
| 2026-04-27 19:31 | 50.46855 | 4.47255 | 626 ft | 2 kts | 245° |
| 2026-04-27 19:31 | 50.46856 | 4.47257 | 626 ft | 2 kts | 245° |
| 2026-04-27 19:34 | 50.46855 | 4.47255 | 626 ft | 1 kts | 245° |
| 2026-04-27 19:35 | 50.46845 | 4.47220 | 625 ft | 6 kts | 245° |
| 2026-04-27 19:35 | 50.46822 | 4.47138 | 617 ft | 10 kts | 245° |
| 2026-04-27 19:35 | 50.46788 | 4.47023 | 616 ft | 13 kts | 245° |
| 2026-04-27 19:35 | 50.46746 | 4.46879 | 615 ft | 16 kts | 245° |
| 2026-04-27 19:36 | 50.46686 | 4.46772 | 612 ft | 13 kts | 176° |
| 2026-04-27 19:36 | 50.46604 | 4.46776 | 616 ft | 13 kts | 228° |
| 2026-04-27 19:36 | 50.46564 | 4.46652 | 619 ft | 13 kts | 245° |
| 2026-04-27 19:36 | 50.46523 | 4.46510 | 616 ft | 16 kts | 245° |
| 2026-04-27 19:37 | 50.46474 | 4.46343 | 616 ft | 18 kts | 245° |
| 2026-04-27 19:37 | 50.46421 | 4.46160 | 617 ft | 18 kts | 245° |
| 2026-04-27 19:37 | 50.46369 | 4.45980 | 619 ft | 18 kts | 245° |
| 2026-04-27 19:37 | 50.46318 | 4.45807 | 614 ft | 17 kts | 245° |
| 2026-04-27 19:38 | 50.46270 | 4.45640 | 619 ft | 16 kts | 245° |
| 2026-04-27 19:38 | 50.46223 | 4.45480 | 612 ft | 16 kts | 245° |
| 2026-04-27 19:38 | 50.46178 | 4.45325 | 618 ft | 15 kts | 245° |
| 2026-04-27 19:38 | 50.46134 | 4.45172 | 621 ft | 16 kts | 245° |
| 2026-04-27 19:39 | 50.46089 | 4.45018 | 614 ft | 15 kts | 245° |
| 2026-04-27 19:39 | 50.46046 | 4.44870 | 617 ft | 14 kts | 245° |
| 2026-04-27 19:39 | 50.46014 | 4.44761 | 617 ft | 11 kts | 245° |
| 2026-04-27 19:39 | 50.45979 | 4.44643 | 615 ft | 13 kts | 246° |
| 2026-04-27 19:40 | 50.45940 | 4.44503 | 615 ft | 15 kts | 245° |
| 2026-04-27 19:40 | 50.45875 | 4.44354 | 622 ft | 18 kts | 232° |
| 2026-04-27 19:40 | 50.45793 | 4.44191 | 621 ft | 20 kts | 232° |
| 2026-04-27 19:40 | 50.45702 | 4.44008 | 624 ft | 18 kts | 232° |
| 2026-04-27 19:41 | 50.45624 | 4.44008 | 623 ft | 6 kts | 130° |
| 2026-04-27 19:41 | 50.45633 | 4.44069 | 617 ft | 0 kts | 65° |
| 2026-04-27 19:41 | 50.45666 | 4.44182 | 615 ft | 40 kts | 65° |
| 2026-04-27 19:42 | 50.45886 | 4.44940 | 620 ft | 111 kts | 65° |
| 2026-04-27 19:42 | 50.46297 | 4.46329 | 675 ft | 162 kts | 64° |
| 2026-04-27 19:42 | 50.46762 | 4.47887 | 1553 ft | 156 kts | 63° |
| 2026-04-27 19:42 | 50.47438 | 4.49259 | 2185 ft | 173 kts | 36° |
| 2026-04-27 19:43 | 50.48625 | 4.50176 | 2477 ft | 203 kts | 33° |
| 2026-04-27 19:43 | 50.49622 | 4.51865 | 2890 ft | 217 kts | 57° |
| 2026-04-27 19:43 | 50.50485 | 4.53941 | 3235 ft | 242 kts | 56° |
| 2026-04-27 19:43 | 50.51493 | 4.56189 | 3971 ft | 253 kts | 54° |
| 2026-04-27 19:44 | 50.52554 | 4.58440 | 4834 ft | 260 kts | 52° |
| 2026-04-27 19:44 | 50.53926 | 4.60319 | 5590 ft | 267 kts | 23° |
| 2026-04-27 19:44 | 50.55732 | 4.60820 | 6579 ft | 266 kts | 354° |
| 2026-04-27 19:44 | 50.57489 | 4.59902 | 7367 ft | 272 kts | 326° |
| 2026-04-27 19:45 | 50.58790 | 4.57763 | 8223 ft | 273 kts | 298° |
| 2026-04-27 19:45 | 50.59334 | 4.54916 | 9118 ft | 275 kts | 274° |
| 2026-04-27 19:45 | 50.59355 | 4.51888 | 9946 ft | 279 kts | 268° |
| 2026-04-27 19:45 | 50.59267 | 4.48803 | 10644 ft | 288 kts | 267° |
| 2026-04-27 19:46 | 50.59153 | 4.45511 | 10837 ft | 314 kts | 267° |
| 2026-04-27 19:46 | 50.59034 | 4.41965 | 11211 ft | 332 kts | 267° |
| 2026-04-27 19:46 | 50.58920 | 4.38312 | 11939 ft | 336 kts | 267° |
| 2026-04-27 19:46 | 50.58813 | 4.34636 | 12817 ft | 337 kts | 268° |
| 2026-04-27 19:47 | 50.58711 | 4.30949 | 13687 ft | 338 kts | 268° |
| 2026-04-27 19:47 | 50.58612 | 4.27236 | 14465 ft | 340 kts | 268° |
| 2026-04-27 19:47 | 50.58513 | 4.23507 | 15198 ft | 343 kts | 268° |
| 2026-04-27 19:47 | 50.58413 | 4.19743 | 15932 ft | 345 kts | 268° |
| 2026-04-27 19:48 | 50.58311 | 4.15959 | 16656 ft | 348 kts | 267° |
| 2026-04-27 19:48 | 50.58208 | 4.12148 | 17381 ft | 350 kts | 267° |
| 2026-04-27 19:48 | 50.58104 | 4.08308 | 18107 ft | 353 kts | 267° |
| 2026-04-27 19:48 | 50.57998 | 4.04490 | 18752 ft | 355 kts | 267° |
| 2026-04-27 19:49 | 50.57890 | 4.00595 | 19338 ft | 358 kts | 267° |
| 2026-04-27 19:49 | 50.57779 | 3.96659 | 19919 ft | 361 kts | 267° |
| 2026-04-27 19:49 | 50.57763 | 3.96093 | 20007 ft | 362 kts | 267° |
| 2026-04-27 19:50 | 50.57663 | 3.92625 | 20523 ft | 364 kts | 267° |
| 2026-04-27 19:50 | 50.57370 | 3.88655 | 21060 ft | 369 kts | 255° |
| 2026-04-27 19:50 | 50.56295 | 3.84980 | 21619 ft | 374 kts | 238° |
| 2026-04-27 19:50 | 50.54573 | 3.81882 | 22180 ft | 381 kts | 224° |
| 2026-04-27 19:51 | 50.52306 | 3.79635 | 22714 ft | 391 kts | 209° |
| 2026-04-27 19:51 | 50.49805 | 3.77901 | 23241 ft | 395 kts | 207° |
| 2026-04-27 19:51 | 50.47256 | 3.76235 | 23730 ft | 399 kts | 206° |
| 2026-04-27 19:51 | 50.44679 | 3.74553 | 24170 ft | 402 kts | 207° |
| 2026-04-27 19:52 | 50.42104 | 3.72846 | 24675 ft | 402 kts | 207° |
| 2026-04-27 19:52 | 50.39538 | 3.71118 | 25191 ft | 401 kts | 207° |
| 2026-04-27 19:52 | 50.36976 | 3.69379 | 25713 ft | 401 kts | 208° |
| 2026-04-27 19:52 | 50.34430 | 3.67650 | 26369 ft | 397 kts | 208° |
| 2026-04-27 19:53 | 50.29429 | 3.64269 | 27756 ft | 387 kts | 208° |
| 2026-04-27 19:53 | 50.26969 | 3.62609 | 28384 ft | 384 kts | 208° |
| 2026-04-27 19:53 | 50.24525 | 3.60960 | 28993 ft | 381 kts | 208° |
| 2026-04-27 19:54 | 50.22101 | 3.59327 | 29610 ft | 378 kts | 208° |
| 2026-04-27 19:54 | 50.19693 | 3.57707 | 30210 ft | 375 kts | 208° |
| 2026-04-27 19:54 | 50.17299 | 3.56099 | 30658 ft | 375 kts | 208° |
| 2026-04-27 19:54 | 50.14900 | 3.54488 | 30981 ft | 377 kts | 208° |
| 2026-04-27 19:55 | 50.12484 | 3.52867 | 31180 ft | 379 kts | 208° |
| 2026-04-27 19:55 | 50.10060 | 3.51244 | 31166 ft | 378 kts | 208° |
| 2026-04-27 19:55 | 50.05229 | 3.48016 | 31172 ft | 378 kts | 208° |
| 2026-04-27 19:56 | 50.00397 | 3.44792 | 31170 ft | 378 kts | 208° |
| 2026-04-27 19:56 | 49.95556 | 3.41568 | 31179 ft | 379 kts | 208° |
| 2026-04-27 19:57 | 49.90781 | 3.38395 | 31170 ft | 380 kts | 208° |
| 2026-04-27 19:57 | 49.85915 | 3.35168 | 31174 ft | 381 kts | 208° |
| 2026-04-27 19:58 | 49.81073 | 3.31966 | 31162 ft | 381 kts | 207° |
| 2026-04-27 19:58 | 49.76160 | 3.28723 | 31172 ft | 381 kts | 207° |
| 2026-04-27 19:59 | 49.71305 | 3.25525 | 31177 ft | 382 kts | 207° |
| 2026-04-27 19:59 | 49.66417 | 3.22311 | 31170 ft | 382 kts | 207° |
| 2026-04-27 20:00 | 49.61515 | 3.19094 | 31167 ft | 383 kts | 207° |
| 2026-04-27 20:00 | 49.56611 | 3.15882 | 31168 ft | 383 kts | 207° |
| 2026-04-27 20:01 | 49.51699 | 3.12672 | 31172 ft | 384 kts | 207° |
| 2026-04-27 20:01 | 49.46932 | 3.09077 | 31164 ft | 379 kts | 217° |
| 2026-04-27 20:02 | 49.42547 | 3.04581 | 31167 ft | 379 kts | 217° |
| 2026-04-27 20:02 | 49.38166 | 3.00081 | 31171 ft | 379 kts | 217° |
| 2026-04-27 20:03 | 49.33776 | 2.95612 | 31171 ft | 378 kts | 217° |
| 2026-04-27 20:03 | 49.29385 | 2.91168 | 31166 ft | 378 kts | 217° |
| 2026-04-27 20:04 | 49.24996 | 2.86740 | 31166 ft | 378 kts | 217° |
| 2026-04-27 20:04 | 49.21827 | 2.83549 | 31167 ft | 377 kts | 217° |
| 2026-04-27 20:05 | 49.17261 | 2.78960 | 31164 ft | 377 kts | 217° |
| 2026-04-27 20:05 | 49.12886 | 2.74571 | 31156 ft | 376 kts | 217° |
| 2026-04-27 20:06 | 49.08514 | 2.70196 | 31159 ft | 375 kts | 217° |
| 2026-04-27 20:06 | 49.04150 | 2.65836 | 31161 ft | 375 kts | 217° |
| 2026-04-27 20:07 | 48.99784 | 2.61483 | 31155 ft | 375 kts | 217° |
| 2026-04-27 20:07 | 48.95419 | 2.57143 | 31158 ft | 375 kts | 217° |
| 2026-04-27 20:08 | 48.91053 | 2.52814 | 31157 ft | 375 kts | 217° |
| 2026-04-27 20:08 | 48.86705 | 2.48511 | 31156 ft | 375 kts | 216° |
| 2026-04-27 20:09 | 48.82328 | 2.44186 | 31155 ft | 375 kts | 216° |
| 2026-04-27 20:09 | 48.77951 | 2.39870 | 31158 ft | 375 kts | 216° |
| 2026-04-27 20:10 | 48.73575 | 2.35563 | 31158 ft | 375 kts | 216° |
| 2026-04-27 20:10 | 48.69198 | 2.31265 | 31158 ft | 375 kts | 216° |
| 2026-04-27 20:11 | 48.64820 | 2.26973 | 31154 ft | 375 kts | 216° |
| 2026-04-27 20:11 | 48.60439 | 2.22689 | 31160 ft | 375 kts | 216° |
| 2026-04-27 20:12 | 48.56648 | 2.19483 | 31151 ft | 379 kts | 207° |
| 2026-04-27 20:12 | 48.50625 | 2.17084 | 31157 ft | 385 kts | 197° |
| 2026-04-27 20:13 | 48.45368 | 2.15456 | 31144 ft | 385 kts | 197° |
| 2026-04-27 20:13 | 48.40131 | 2.13793 | 31149 ft | 384 kts | 197° |
| 2026-04-27 20:14 | 48.34902 | 2.12110 | 31144 ft | 384 kts | 198° |
| 2026-04-27 20:14 | 48.29662 | 2.10521 | 31133 ft | 387 kts | 192° |
| 2026-04-27 20:15 | 48.24221 | 2.10746 | 31143 ft | 398 kts | 178° |
| 2026-04-27 20:15 | 48.18747 | 2.12009 | 31124 ft | 397 kts | 178° |
| 2026-04-27 20:16 | 48.14205 | 2.12990 | 31123 ft | 396 kts | 179° |
| 2026-04-27 20:16 | 48.08756 | 2.13596 | 31132 ft | 391 kts | 185° |
| 2026-04-27 20:17 | 48.03323 | 2.13845 | 31128 ft | 391 kts | 185° |
| 2026-04-27 20:17 | 47.97888 | 2.14103 | 31130 ft | 391 kts | 185° |
| 2026-04-27 20:18 | 47.92441 | 2.14400 | 31129 ft | 392 kts | 185° |
| 2026-04-27 20:18 | 47.86997 | 2.14715 | 31130 ft | 392 kts | 185° |
| 2026-04-27 20:19 | 47.81544 | 2.15034 | 31129 ft | 392 kts | 185° |
| 2026-04-27 20:19 | 47.76128 | 2.15351 | 31129 ft | 392 kts | 185° |
| 2026-04-27 20:20 | 47.70636 | 2.15671 | 31124 ft | 392 kts | 185° |
| 2026-04-27 20:20 | 47.65218 | 2.15986 | 31128 ft | 392 kts | 185° |
| 2026-04-27 20:21 | 47.59764 | 2.16303 | 31123 ft | 392 kts | 185° |
| 2026-04-27 20:21 | 47.54310 | 2.16619 | 31128 ft | 392 kts | 185° |
| 2026-04-27 20:22 | 47.48855 | 2.16934 | 31120 ft | 392 kts | 185° |
| 2026-04-27 20:22 | 47.43398 | 2.17248 | 31119 ft | 392 kts | 186° |
| 2026-04-27 20:23 | 47.37944 | 2.17562 | 31120 ft | 392 kts | 186° |
| 2026-04-27 20:23 | 47.32491 | 2.17875 | 31119 ft | 392 kts | 186° |
| 2026-04-27 20:24 | 47.27034 | 2.18188 | 31114 ft | 393 kts | 186° |
| 2026-04-27 20:24 | 47.21572 | 2.18501 | 31119 ft | 393 kts | 186° |
| 2026-04-27 20:25 | 47.16108 | 2.18812 | 31115 ft | 393 kts | 186° |
| 2026-04-27 20:25 | 47.10634 | 2.19167 | 31109 ft | 397 kts | 182° |
| 2026-04-27 20:26 | 47.05192 | 2.21236 | 31117 ft | 413 kts | 166° |
| 2026-04-27 20:26 | 46.99867 | 2.24442 | 31103 ft | 414 kts | 165° |
| 2026-04-27 20:27 | 46.94532 | 2.27629 | 31110 ft | 414 kts | 166° |
| 2026-04-27 20:27 | 46.89182 | 2.30754 | 31108 ft | 414 kts | 166° |
| 2026-04-27 20:28 | 46.83850 | 2.33952 | 31102 ft | 418 kts | 160° |
| 2026-04-27 20:28 | 46.79685 | 2.37683 | 31110 ft | 425 kts | 154° |
| 2026-04-27 20:29 | 46.73935 | 2.43281 | 31110 ft | 425 kts | 153° |
| 2026-04-27 20:29 | 46.69012 | 2.48034 | 31114 ft | 424 kts | 153° |
| 2026-04-27 20:30 | 46.64073 | 2.52742 | 31111 ft | 424 kts | 153° |
| 2026-04-27 20:30 | 46.59123 | 2.57430 | 31115 ft | 424 kts | 153° |
| 2026-04-27 20:31 | 46.54170 | 2.62108 | 31106 ft | 425 kts | 153° |
| 2026-04-27 20:31 | 46.49212 | 2.66780 | 31104 ft | 425 kts | 153° |
| 2026-04-27 20:32 | 46.44288 | 2.71412 | 31106 ft | 425 kts | 153° |
| 2026-04-27 20:32 | 46.39332 | 2.76065 | 31107 ft | 424 kts | 153° |
| 2026-04-27 20:33 | 46.34377 | 2.80705 | 31106 ft | 424 kts | 153° |
| 2026-04-27 20:33 | 46.29424 | 2.85334 | 31108 ft | 424 kts | 152° |
| 2026-04-27 20:34 | 46.24472 | 2.89952 | 31103 ft | 424 kts | 152° |
| 2026-04-27 20:34 | 46.19521 | 2.94559 | 31103 ft | 423 kts | 152° |
| 2026-04-27 20:35 | 46.14574 | 2.99152 | 31108 ft | 422 kts | 152° |
| 2026-04-27 20:35 | 46.09632 | 3.03731 | 31102 ft | 422 kts | 152° |
| 2026-04-27 20:36 | 46.04696 | 3.08295 | 31103 ft | 421 kts | 152° |
| 2026-04-27 20:36 | 45.99765 | 3.12846 | 31099 ft | 421 kts | 152° |
| 2026-04-27 20:37 | 45.94673 | 3.16829 | 31107 ft | 411 kts | 167° |
| 2026-04-27 20:37 | 45.89143 | 3.18084 | 31108 ft | 399 kts | 185° |
| 2026-04-27 20:38 | 45.83597 | 3.17965 | 31104 ft | 399 kts | 186° |
| 2026-04-27 20:38 | 45.78042 | 3.17820 | 31100 ft | 400 kts | 185° |
| 2026-04-27 20:39 | 45.72472 | 3.17716 | 31107 ft | 401 kts | 185° |
| 2026-04-27 20:39 | 45.66883 | 3.17634 | 31103 ft | 402 kts | 185° |
| 2026-04-27 20:40 | 45.61283 | 3.17560 | 31098 ft | 403 kts | 185° |
| 2026-04-27 20:40 | 45.55688 | 3.17486 | 31102 ft | 402 kts | 185° |
| 2026-04-27 20:41 | 45.50088 | 3.17413 | 31100 ft | 402 kts | 185° |
| 2026-04-27 20:41 | 45.44499 | 3.17339 | 31112 ft | 402 kts | 185° |
| 2026-04-27 20:42 | 45.38950 | 3.17266 | 31111 ft | 401 kts | 185° |
| 2026-04-27 20:42 | 45.33361 | 3.17191 | 31106 ft | 402 kts | 185° |
| 2026-04-27 20:43 | 45.27762 | 3.17115 | 31106 ft | 403 kts | 185° |
| 2026-04-27 20:43 | 45.22141 | 3.17043 | 31110 ft | 404 kts | 185° |
| 2026-04-27 20:44 | 45.16516 | 3.16969 | 31100 ft | 405 kts | 185° |
| 2026-04-27 20:44 | 45.10886 | 3.16896 | 31112 ft | 404 kts | 185° |
| 2026-04-27 20:45 | 45.05259 | 3.16822 | 31112 ft | 404 kts | 185° |
| 2026-04-27 20:45 | 44.99636 | 3.16749 | 31104 ft | 404 kts | 185° |
| 2026-04-27 20:46 | 44.94019 | 3.16675 | 31108 ft | 403 kts | 185° |
| 2026-04-27 20:46 | 44.91252 | 3.16642 | 31091 ft | 392 kts | 185° |
| 2026-04-27 20:46 | 44.88547 | 3.16610 | 31094 ft | 386 kts | 185° |
| 2026-04-27 20:47 | 44.83178 | 3.16536 | 31110 ft | 386 kts | 185° |
| 2026-04-27 20:47 | 44.80481 | 3.16498 | 30822 ft | 388 kts | 185° |
| 2026-04-27 20:47 | 44.77806 | 3.16464 | 30546 ft | 382 kts | 184° |
| 2026-04-27 20:48 | 44.75155 | 3.16430 | 30198 ft | 380 kts | 184° |
| 2026-04-27 20:48 | 44.73413 | 3.16407 | 29935 ft | 378 kts | 184° |
| 2026-04-27 20:48 | 44.69915 | 3.16362 | 29422 ft | 373 kts | 184° |
| 2026-04-27 20:48 | 44.67335 | 3.16328 | 29041 ft | 370 kts | 184° |
| 2026-04-27 20:49 | 44.64777 | 3.16295 | 28680 ft | 366 kts | 184° |
| 2026-04-27 20:49 | 44.62241 | 3.16260 | 28312 ft | 363 kts | 185° |
| 2026-04-27 20:49 | 44.59751 | 3.15927 | 27945 ft | 356 kts | 195° |
| 2026-04-27 20:49 | 44.57359 | 3.15124 | 27603 ft | 351 kts | 197° |
| 2026-04-27 20:50 | 44.55001 | 3.14263 | 27239 ft | 349 kts | 198° |
| 2026-04-27 20:50 | 44.52664 | 3.13397 | 26886 ft | 347 kts | 198° |
| 2026-04-27 20:50 | 44.50367 | 3.12552 | 26541 ft | 344 kts | 198° |
| 2026-04-27 20:50 | 44.48067 | 3.11716 | 26197 ft | 342 kts | 197° |
| 2026-04-27 20:51 | 44.45757 | 3.10883 | 25866 ft | 340 kts | 197° |
| 2026-04-27 20:51 | 44.43468 | 3.10064 | 25515 ft | 339 kts | 197° |
| 2026-04-27 20:51 | 44.41190 | 3.09252 | 25181 ft | 337 kts | 197° |
| 2026-04-27 20:51 | 44.38925 | 3.08446 | 24846 ft | 336 kts | 197° |
| 2026-04-27 20:52 | 44.36666 | 3.07645 | 24501 ft | 334 kts | 197° |
| 2026-04-27 20:52 | 44.34416 | 3.06847 | 24173 ft | 333 kts | 197° |
| 2026-04-27 20:52 | 44.32174 | 3.06053 | 23834 ft | 332 kts | 197° |
| 2026-04-27 20:52 | 44.29935 | 3.05261 | 23451 ft | 332 kts | 197° |
| 2026-04-27 20:53 | 44.27701 | 3.04471 | 23075 ft | 330 kts | 197° |
| 2026-04-27 20:53 | 44.25484 | 3.03688 | 22728 ft | 328 kts | 197° |
| 2026-04-27 20:53 | 44.23276 | 3.02909 | 22383 ft | 326 kts | 197° |
| 2026-04-27 20:53 | 44.21082 | 3.02136 | 22051 ft | 324 kts | 197° |
| 2026-04-27 20:54 | 44.16734 | 3.00603 | 21386 ft | 320 kts | 197° |
| 2026-04-27 20:54 | 44.14581 | 2.99846 | 21046 ft | 318 kts | 197° |
| 2026-04-27 20:54 | 44.12439 | 2.99093 | 20742 ft | 316 kts | 197° |
| 2026-04-27 20:55 | 44.10310 | 2.98346 | 20418 ft | 315 kts | 197° |
| 2026-04-27 20:55 | 44.08194 | 2.97608 | 20095 ft | 313 kts | 197° |
| 2026-04-27 20:55 | 44.06085 | 2.96874 | 19788 ft | 311 kts | 197° |
| 2026-04-27 20:55 | 44.03991 | 2.96144 | 19467 ft | 310 kts | 197° |
| 2026-04-27 20:56 | 44.01905 | 2.95417 | 19147 ft | 308 kts | 197° |
| 2026-04-27 20:56 | 43.99827 | 2.94693 | 18836 ft | 307 kts | 197° |
| 2026-04-27 20:56 | 43.97758 | 2.93972 | 18525 ft | 306 kts | 197° |
| 2026-04-27 20:56 | 43.95691 | 2.93253 | 18175 ft | 306 kts | 197° |
| 2026-04-27 20:57 | 43.93633 | 2.92538 | 17835 ft | 305 kts | 196° |
| 2026-04-27 20:57 | 43.91581 | 2.91825 | 17498 ft | 303 kts | 196° |
| 2026-04-27 20:57 | 43.89537 | 2.91116 | 17176 ft | 302 kts | 196° |
| 2026-04-27 20:57 | 43.87505 | 2.90410 | 16861 ft | 300 kts | 196° |
| 2026-04-27 20:58 | 43.85485 | 2.89709 | 16549 ft | 299 kts | 196° |
| 2026-04-27 20:58 | 43.83469 | 2.89011 | 16234 ft | 298 kts | 196° |
| 2026-04-27 20:58 | 43.81466 | 2.88318 | 15925 ft | 296 kts | 196° |
| 2026-04-27 20:58 | 43.79466 | 2.87631 | 15618 ft | 295 kts | 194° |
| 2026-04-27 20:59 | 43.77416 | 2.87546 | 15280 ft | 299 kts | 170° |
| 2026-04-27 20:59 | 43.75492 | 2.88606 | 15013 ft | 300 kts | 150° |
| 2026-04-27 20:59 | 43.73749 | 2.90175 | 14718 ft | 299 kts | 147° |
| 2026-04-27 20:59 | 43.72034 | 2.91804 | 14411 ft | 299 kts | 147° |
| 2026-04-27 21:00 | 43.70324 | 2.93440 | 14103 ft | 299 kts | 147° |
| 2026-04-27 21:00 | 43.68610 | 2.95070 | 13775 ft | 299 kts | 147° |
| 2026-04-27 21:00 | 43.66895 | 2.96688 | 13429 ft | 298 kts | 147° |
| 2026-04-27 21:00 | 43.65184 | 2.98292 | 13111 ft | 297 kts | 147° |
| 2026-04-27 21:01 | 43.63479 | 2.99885 | 12805 ft | 295 kts | 147° |
| 2026-04-27 21:01 | 43.61804 | 3.01445 | 12501 ft | 294 kts | 147° |
| 2026-04-27 21:01 | 43.60115 | 3.03015 | 12209 ft | 292 kts | 147° |
| 2026-04-27 21:01 | 43.58428 | 3.04580 | 11893 ft | 291 kts | 147° |
| 2026-04-27 21:02 | 43.56750 | 3.06136 | 11600 ft | 290 kts | 147° |
| 2026-04-27 21:02 | 43.55078 | 3.07685 | 11299 ft | 289 kts | 147° |
| 2026-04-27 21:02 | 43.53413 | 3.09227 | 11005 ft | 288 kts | 147° |
| 2026-04-27 21:02 | 43.51753 | 3.10763 | 10708 ft | 287 kts | 147° |
| 2026-04-27 21:03 | 43.50100 | 3.12291 | 10416 ft | 286 kts | 147° |
| 2026-04-27 21:03 | 43.48459 | 3.13805 | 10230 ft | 281 kts | 147° |
| 2026-04-27 21:03 | 43.46859 | 3.15282 | 10079 ft | 274 kts | 146° |
| 2026-04-27 21:03 | 43.45274 | 3.16743 | 9776 ft | 274 kts | 146° |
| 2026-04-27 21:04 | 43.44205 | 3.17728 | 9579 ft | 273 kts | 146° |
| 2026-04-27 21:04 | 43.42632 | 3.19177 | 9295 ft | 272 kts | 146° |
| 2026-04-27 21:04 | 43.41067 | 3.20619 | 9016 ft | 270 kts | 146° |
| 2026-04-27 21:04 | 43.39509 | 3.22053 | 8734 ft | 269 kts | 146° |
| 2026-04-27 21:05 | 43.37957 | 3.23481 | 8456 ft | 268 kts | 146° |
| 2026-04-27 21:05 | 43.36411 | 3.24901 | 8185 ft | 267 kts | 146° |
| 2026-04-27 21:05 | 43.34872 | 3.26313 | 7911 ft | 266 kts | 146° |
| 2026-04-27 21:05 | 43.33553 | 3.28054 | 7608 ft | 265 kts | 120° |
| 2026-04-27 21:06 | 43.33003 | 3.30421 | 7357 ft | 261 kts | 93° |
| 2026-04-27 21:06 | 43.33111 | 3.32889 | 7103 ft | 258 kts | 82° |
| 2026-04-27 21:06 | 43.33373 | 3.35329 | 6840 ft | 258 kts | 80° |
| 2026-04-27 21:06 | 43.33649 | 3.37758 | 6590 ft | 256 kts | 80° |
| 2026-04-27 21:07 | 43.33915 | 3.40151 | 6434 ft | 251 kts | 81° |
| 2026-04-27 21:07 | 43.34169 | 3.42488 | 6306 ft | 244 kts | 81° |
| 2026-04-27 21:07 | 43.34411 | 3.44761 | 6188 ft | 237 kts | 81° |
| 2026-04-27 21:07 | 43.34642 | 3.46960 | 6081 ft | 229 kts | 81° |
| 2026-04-27 21:08 | 43.34866 | 3.49099 | 5899 ft | 230 kts | 81° |
| 2026-04-27 21:08 | 43.35095 | 3.51311 | 5673 ft | 232 kts | 81° |
| 2026-04-27 21:08 | 43.35322 | 3.53525 | 5346 ft | 236 kts | 81° |
| 2026-04-27 21:08 | 43.35547 | 3.55723 | 5099 ft | 235 kts | 81° |
| 2026-04-27 21:09 | 43.35774 | 3.57948 | 4850 ft | 235 kts | 83° |
| 2026-04-27 21:09 | 43.35609 | 3.60152 | 4567 ft | 234 kts | 115° |
| 2026-04-27 21:09 | 43.34564 | 3.61779 | 4343 ft | 228 kts | 155° |
| 2026-04-27 21:09 | 43.33055 | 3.62091 | 4125 ft | 220 kts | 195° |
| 2026-04-27 21:10 | 43.31809 | 3.60991 | 3912 ft | 214 kts | 237° |
| 2026-04-27 21:10 | 43.31354 | 3.59110 | 3719 ft | 207 kts | 263° |
| 2026-04-27 21:10 | 43.31255 | 3.57138 | 3391 ft | 206 kts | 269° |
| 2026-04-27 21:10 | 43.31275 | 3.55175 | 3079 ft | 205 kts | 272° |
| 2026-04-27 21:11 | 43.31360 | 3.53236 | 2778 ft | 202 kts | 274° |
| 2026-04-27 21:11 | 43.31460 | 3.51318 | 2471 ft | 200 kts | 274° |
| 2026-04-27 21:11 | 43.31562 | 3.49440 | 2159 ft | 193 kts | 274° |
| 2026-04-27 21:11 | 43.31660 | 3.47661 | 1878 ft | 181 kts | 274° |
| 2026-04-27 21:12 | 43.31751 | 3.45999 | 1618 ft | 167 kts | 274° |
| 2026-04-27 21:12 | 43.31834 | 3.44489 | 1393 ft | 148 kts | 274° |
| 2026-04-27 21:12 | 43.31910 | 3.43096 | 1145 ft | 144 kts | 274° |
| 2026-04-27 21:12 | 43.31985 | 3.41730 | 937 ft | 144 kts | 274° |
| 2026-04-27 21:13 | 43.32062 | 3.40351 | 747 ft | 145 kts | 274° |
| 2026-04-27 21:13 | 43.32140 | 3.38956 | 496 ft | 148 kts | 274° |
| 2026-04-27 21:13 | 43.32216 | 3.37563 | 268 ft | 145 kts | 275° |
| 2026-04-27 21:13 | 43.32297 | 3.36211 | 62 ft | 138 kts | 275° |
| 2026-04-27 21:14 | 43.32355 | 3.35172 | 54 ft | 60 kts | 274° |
| 2026-04-27 21:14 | 43.32377 | 3.34776 | 58 ft | 36 kts | 274° |
| 2026-04-27 21:14 | 43.32394 | 3.34462 | 57 ft | 31 kts | 274° |
| 2026-04-27 21:14 | 43.32393 | 3.34242 | 55 ft | 13 kts | 244° |
| 2026-04-27 21:15 | 43.32410 | 3.34203 | 54 ft | 5 kts | 44° |
| 2026-04-27 21:15 | 43.32407 | 3.34252 | 60 ft | 6 kts | 96° |
| 2026-04-27 21:15 | 43.32402 | 3.34321 | 60 ft | 9 kts | 95° |
| 2026-04-27 21:15 | 43.32395 | 3.34437 | 57 ft | 15 kts | 95° |
| 2026-04-27 21:16 | 43.32386 | 3.34602 | 58 ft | 20 kts | 94° |
| 2026-04-27 21:16 | 43.32374 | 3.34811 | 58 ft | 24 kts | 95° |
| 2026-04-27 21:16 | 43.32360 | 3.35054 | 56 ft | 27 kts | 95° |
| 2026-04-27 21:16 | 43.32347 | 3.35282 | 56 ft | 15 kts | 94° |
| 2026-04-27 21:17 | 43.32285 | 3.35334 | 56 ft | 11 kts | 182° |
| 2026-04-27 21:17 | 43.32221 | 3.35328 | 55 ft | 5 kts | 185° |
| 2026-04-27 21:17 | 43.32187 | 3.35336 | 55 ft | 5 kts | 155° |
| 2026-04-27 21:17 | 43.32152 | 3.35345 | 54 ft | 4 kts | 182° |
| 2026-04-27 21:18 | 43.32131 | 3.35342 | 55 ft | 2 kts | 200° |
| 2026-04-27 21:18 | 43.32130 | 3.35325 | 51 ft | 2 kts | 304° |
| 2026-04-27 21:18 | 43.32141 | 3.35313 | 55 ft | 1 kts | 318° |
| 2026-04-27 21:18 | 43.32144 | 3.35309 | 55 ft | 0 kts | 315° |
| 2026-04-27 21:19 | 43.32144 | 3.35308 | 55 ft | 0 kts | 314° |
| 2026-04-27 21:19 | 43.32145 | 3.35307 | 55 ft | 0 kts | 314° |